createdAt,value
2019-06-10T00:01:15.454Z,1.83
2019-06-10T00:03:46.274Z,1.80
2019-06-10T00:06:16.939Z,2.37
2019-06-10T00:08:50.488Z,2.27
2019-06-10T00:11:21.420Z,1.97
2019-06-10T00:13:52.175Z,2.33
2019-06-10T00:16:22.876Z,2.33
2019-06-10T00:18:53.539Z,1.73
2019-06-10T00:21:24.206Z,1.70
2019-06-10T00:23:54.971Z,1.90
2019-06-10T00:26:25.584Z,1.93
2019-06-10T00:28:56.445Z,2.17
2019-06-10T00:31:27.161Z,1.90
2019-06-10T00:33:59.265Z,1.93
2019-06-10T00:36:30.895Z,1.90
2019-06-10T00:39:04.059Z,2.50
2019-06-10T00:41:34.989Z,1.73
2019-06-10T00:44:06.974Z,2.20
2019-06-10T00:46:38.129Z,2.40
2019-06-10T00:49:12.089Z,2.40
2019-06-10T00:51:42.156Z,1.93
2019-06-10T00:54:15.489Z,2.33
2019-06-10T00:56:45.254Z,2.20
2019-06-10T00:59:15.881Z,2.20
2019-06-10T01:01:47.224Z,2.10
2019-06-10T01:04:17.896Z,2.00
2019-06-10T01:06:51.228Z,2.03
2019-06-10T01:09:21.883Z,2.33
2019-06-10T01:11:53.359Z,2.20
2019-06-10T01:14:24.053Z,1.90
2019-06-10T01:16:55.560Z,2.00
2019-06-10T01:19:26.254Z,2.07
2019-06-10T01:21:57.090Z,2.37
2019-06-10T01:24:27.758Z,1.97
2019-06-10T01:26:58.460Z,1.90
2019-06-10T01:29:31.307Z,2.17
2019-06-10T01:32:03.251Z,2.20
2019-06-10T01:34:33.866Z,2.53
2019-06-10T01:37:04.539Z,2.20
2019-06-10T01:39:35.309Z,2.57
2019-06-10T01:42:06.226Z,2.47
2019-06-10T01:44:36.896Z,1.80
2019-06-10T01:47:08.697Z,2.20
2019-06-10T01:49:41.213Z,2.30
2019-06-10T01:52:13.939Z,2.13
2019-06-10T01:54:44.557Z,2.20
2019-06-10T01:57:15.750Z,2.10
2019-06-10T01:59:47.572Z,2.30
2019-06-10T02:02:23.907Z,2.20
2019-06-10T02:04:54.959Z,2.37
2019-06-10T02:07:25.779Z,2.23
2019-06-10T02:09:57.567Z,1.97
2019-06-10T02:12:28.238Z,2.20
2019-06-10T02:15:01.312Z,2.40
2019-06-10T02:17:32.033Z,2.30
2019-06-10T02:20:03.635Z,2.23
2019-06-10T02:22:34.298Z,2.40
2019-06-10T02:25:05.589Z,2.70
2019-06-10T02:27:36.218Z,1.93
2019-06-10T02:30:13.654Z,2.77
2019-06-10T02:32:42.810Z,2.53
2019-06-10T02:35:18.061Z,2.03
2019-06-10T02:37:45.242Z,2.60
2019-06-10T02:40:19.311Z,2.17
2019-06-10T02:42:53.808Z,2.10
2019-06-10T02:45:32.015Z,2.27
2019-06-10T02:47:55.676Z,2.40
2019-06-10T02:50:57.800Z,2.83
2019-06-10T02:53:31.228Z,2.30
2019-06-10T02:56:04.208Z,2.70
2019-06-10T02:58:39.178Z,2.30
2019-06-10T03:01:07.428Z,2.83
2019-06-10T03:03:44.619Z,2.87
2019-06-10T03:06:14.440Z,2.80
2019-06-10T03:08:43.980Z,2.30
2019-06-10T03:11:16.410Z,2.50
2019-06-10T03:13:47.167Z,2.40
2019-06-10T03:16:28.200Z,2.83
2019-06-10T03:18:58.904Z,2.37
2019-06-10T03:21:32.304Z,2.67
2019-06-10T03:24:02.829Z,2.40
2019-06-10T03:26:33.574Z,2.70
2019-06-10T03:29:04.547Z,2.40
2019-06-10T03:31:41.457Z,2.80
2019-06-10T03:34:07.937Z,2.87
2019-06-10T03:36:39.171Z,2.30
2019-06-10T03:39:13.117Z,2.80
2019-06-10T03:41:42.955Z,2.60
2019-06-10T03:44:13.603Z,2.70
2019-06-10T03:46:44.265Z,3.07
2019-06-10T03:49:15.056Z,2.90
2019-06-10T03:51:45.760Z,2.83
2019-06-10T03:54:17.168Z,2.77
2019-06-10T03:56:47.846Z,2.60
2019-06-10T03:59:19.239Z,3.00
2019-06-10T04:01:49.936Z,2.77
2019-06-10T04:04:23.430Z,3.03
2019-06-10T04:06:53.324Z,2.97
2019-06-10T04:09:25.459Z,2.70
2019-06-10T04:11:57.337Z,2.57
2019-06-10T04:14:28.517Z,2.50
2019-06-10T04:16:59.885Z,2.60
2019-06-10T04:19:32.572Z,2.67
2019-06-10T04:22:02.930Z,2.60
2019-06-10T04:24:33.625Z,3.37
2019-06-10T04:27:04.349Z,3.03
2019-06-10T04:29:35.008Z,3.00
2019-06-10T04:32:06.050Z,2.77
2019-06-10T04:34:36.713Z,2.93
2019-06-10T04:37:07.512Z,2.70
2019-06-10T04:39:39.146Z,3.07
2019-06-10T04:42:09.965Z,2.97
2019-06-10T04:44:42.384Z,2.53
2019-06-10T04:47:13.146Z,3.03
2019-06-10T04:49:43.793Z,3.00
2019-06-10T04:52:33.580Z,2.97
2019-06-10T04:55:04.363Z,3.20
2019-06-10T04:57:45.145Z,2.90
2019-06-10T05:00:28.509Z,3.23
2019-06-10T05:03:08.341Z,3.00
2019-06-10T05:05:39.298Z,3.40
2019-06-10T05:08:15.097Z,3.77
2019-06-10T05:10:45.928Z,3.30
2019-06-10T05:13:16.589Z,3.10
2019-06-10T05:15:52.575Z,2.90
2019-06-10T05:18:25.929Z,3.23
2019-06-10T05:20:58.775Z,2.87
2019-06-10T05:23:29.944Z,3.43
2019-06-10T05:26:02.977Z,2.93
2019-06-10T05:28:34.342Z,3.73
2019-06-10T05:31:05.275Z,3.10
2019-06-10T05:33:35.932Z,3.43
2019-06-10T05:36:06.679Z,3.47
2019-06-10T05:38:37.423Z,3.27
2019-06-10T05:41:08.503Z,2.80
2019-06-10T05:43:39.308Z,3.10
2019-06-10T05:46:10.074Z,2.87
2019-06-10T05:48:43.744Z,3.40
2019-06-10T05:51:13.992Z,3.10
2019-06-10T05:53:46.425Z,3.17
2019-06-10T05:56:17.201Z,3.10
2019-06-10T05:58:47.886Z,3.20
2019-06-10T06:01:18.502Z,4.03
2019-06-10T06:03:49.215Z,3.50
2019-06-10T06:06:19.895Z,3.40
2019-06-10T06:08:50.567Z,3.80
2019-06-10T06:11:23.174Z,3.63
2019-06-10T06:13:53.672Z,3.80
2019-06-10T06:16:25.628Z,3.50
2019-06-10T06:18:56.452Z,3.47
2019-06-10T06:21:32.407Z,4.17
2019-06-10T06:24:03.651Z,3.37
2019-06-10T06:26:37.415Z,3.87
2019-06-10T06:29:05.498Z,3.60
2019-06-10T06:31:37.643Z,3.50
2019-06-10T06:34:08.394Z,5.50
2019-06-10T06:36:42.104Z,3.77
2019-06-10T06:39:12.864Z,3.63
2019-06-10T06:41:44.005Z,4.00
2019-06-10T06:44:14.755Z,3.50
2019-06-10T06:46:45.527Z,3.20
2019-06-10T06:49:16.303Z,4.13
2019-06-10T06:51:55.123Z,3.63
2019-06-10T06:54:22.995Z,3.57
2019-06-10T06:56:53.910Z,4.20
2019-06-10T06:59:24.594Z,3.63
2019-06-10T07:01:55.266Z,4.00
2019-06-10T07:04:26.079Z,3.87
2019-06-10T07:06:58.000Z,5.73
2019-06-10T07:09:33.108Z,3.97
2019-06-10T07:12:05.919Z,3.73
2019-06-10T07:14:39.296Z,3.33
2019-06-10T07:17:12.589Z,3.70
2019-06-10T07:19:45.748Z,3.37
2019-06-10T07:22:16.413Z,3.70
2019-06-10T07:24:47.923Z,3.17
2019-06-10T07:27:22.658Z,3.43
2019-06-10T07:29:53.204Z,3.63
2019-06-10T07:32:23.941Z,3.83
2019-06-10T07:34:54.670Z,3.30
2019-06-10T07:37:25.425Z,3.57
2019-06-10T07:39:56.103Z,3.37
2019-06-10T07:42:26.821Z,3.53
2019-06-10T07:44:57.631Z,4.20
2019-06-10T07:47:28.485Z,3.90
2019-06-10T07:49:59.977Z,3.70
2019-06-10T07:52:32.802Z,3.63
2019-06-10T07:55:03.402Z,3.80
2019-06-10T07:57:34.773Z,4.07
2019-06-10T08:00:07.297Z,4.00
2019-06-10T08:02:37.938Z,3.47
2019-06-10T08:05:09.538Z,3.70
2019-06-10T08:07:41.503Z,3.87
2019-06-10T08:10:14.857Z,4.13
2019-06-10T08:12:48.350Z,3.77
2019-06-10T08:15:19.481Z,4.33
2019-06-10T08:17:52.906Z,4.00
2019-06-10T08:20:43.837Z,3.80
2019-06-10T08:23:17.484Z,4.00
2019-06-10T08:25:53.670Z,4.27
2019-06-10T08:28:23.024Z,3.87
2019-06-10T08:30:53.816Z,4.40
2019-06-10T08:33:24.569Z,4.10
2019-06-10T08:36:00.156Z,4.37
2019-06-10T08:38:27.726Z,4.50
2019-06-10T08:40:58.435Z,4.60
2019-06-10T08:43:30.201Z,4.63
2019-06-10T08:46:02.529Z,4.23
2019-06-10T08:48:33.481Z,4.63
2019-06-10T08:51:04.231Z,4.70
2019-06-10T08:53:34.979Z,4.73
2019-06-10T08:56:06.154Z,4.90
2019-06-10T08:58:38.474Z,4.70
2019-06-10T09:01:12.691Z,4.73
2019-06-10T09:03:47.432Z,4.70
2019-06-10T09:06:17.575Z,4.77
2019-06-10T09:08:51.268Z,4.23
2019-06-10T09:11:23.586Z,4.77
2019-06-10T09:13:53.494Z,4.63
2019-06-10T09:16:26.531Z,4.90
2019-06-10T09:18:58.546Z,5.10
2019-06-10T09:21:29.198Z,4.97
2019-06-10T09:24:03.800Z,4.87
2019-06-10T09:26:33.947Z,4.50
2019-06-10T09:29:08.477Z,4.30
2019-06-10T09:31:41.576Z,4.73
2019-06-10T09:34:13.013Z,5.37
2019-06-10T09:36:49.109Z,5.13
2019-06-10T09:39:16.704Z,4.73
2019-06-10T09:41:54.103Z,5.07
2019-06-10T09:44:19.833Z,4.33
2019-06-10T09:46:56.461Z,4.90
2019-06-10T09:49:29.107Z,4.60
2019-06-10T09:52:03.369Z,5.00
2019-06-10T09:54:34.127Z,4.40
2019-06-10T09:57:04.817Z,4.93
2019-06-10T09:59:35.609Z,4.30
2019-06-10T10:02:07.430Z,5.00
2019-06-10T10:04:40.939Z,4.87
2019-06-10T10:07:12.295Z,4.60
2019-06-10T10:09:48.537Z,5.40
2019-06-10T10:12:18.088Z,4.60
2019-06-10T10:14:51.416Z,4.67
2019-06-10T10:17:23.261Z,4.57
2019-06-10T10:19:56.909Z,4.23
2019-06-10T10:22:26.751Z,4.33
2019-06-10T10:25:02.815Z,4.73
2019-06-10T10:27:32.432Z,4.83
2019-06-10T10:30:03.991Z,4.70
2019-06-10T10:32:34.942Z,4.20
2019-06-10T10:35:06.236Z,4.40
2019-06-10T10:37:36.986Z,4.50
2019-06-10T10:40:08.602Z,4.60
2019-06-10T10:42:47.698Z,4.33
2019-06-10T10:45:13.325Z,4.73
2019-06-10T10:47:45.032Z,4.83
2019-06-10T10:50:16.865Z,4.77
2019-06-10T10:52:49.838Z,4.90
2019-06-10T10:55:22.300Z,4.80
2019-06-10T10:57:55.694Z,4.57
2019-06-10T11:00:36.613Z,4.53
2019-06-10T11:03:04.269Z,4.90
2019-06-10T11:05:38.552Z,4.57
2019-06-10T11:08:13.465Z,4.60
2019-06-10T11:10:48.187Z,4.93
2019-06-10T11:13:23.306Z,4.40
2019-06-10T11:15:56.446Z,4.53
2019-06-10T11:18:26.601Z,5.07
2019-06-10T11:21:02.509Z,4.60
2019-06-10T11:23:33.694Z,4.30
2019-06-10T11:26:05.381Z,4.37
2019-06-10T11:28:42.811Z,4.27
2019-06-10T11:31:14.226Z,4.27
2019-06-10T11:33:48.984Z,4.33
2019-06-10T11:36:22.740Z,4.40
2019-06-10T11:38:55.579Z,5.13
2019-06-10T11:41:25.543Z,4.53
2019-06-10T11:43:59.011Z,4.80
2019-06-10T11:46:28.650Z,5.13
2019-06-10T11:48:59.419Z,4.80
2019-06-10T11:51:30.176Z,4.83
2019-06-10T11:54:03.564Z,5.23
2019-06-10T11:56:34.393Z,4.30
2019-06-10T11:59:09.592Z,5.20
2019-06-10T12:01:39.400Z,4.60
2019-06-10T12:04:12.843Z,4.80
2019-06-10T12:06:43.985Z,4.53
2019-06-10T12:09:14.835Z,4.60
2019-06-10T12:11:45.885Z,4.97
2019-06-10T12:14:16.730Z,5.27
2019-06-10T12:19:24.057Z,4.93
2019-06-10T12:21:59.266Z,4.73
2019-06-10T12:24:28.271Z,5.00
2019-06-10T12:27:05.325Z,4.80
2019-06-10T12:29:38.013Z,4.97
2019-06-10T12:32:08.820Z,4.77
2019-06-10T12:34:39.504Z,5.30
2019-06-10T12:37:15.523Z,5.53
2019-06-10T12:39:44.087Z,5.63
2019-06-10T12:42:16.135Z,5.90
2019-06-10T12:44:46.888Z,5.30
2019-06-10T12:47:17.670Z,5.47
2019-06-10T12:49:48.355Z,5.10
2019-06-10T12:52:19.084Z,5.70
2019-06-10T12:54:50.476Z,5.53
2019-06-10T12:57:23.010Z,4.93
2019-06-10T12:59:54.080Z,5.37
2019-06-10T13:02:31.232Z,4.93
2019-06-10T13:04:59.645Z,5.43
2019-06-10T13:07:32.463Z,5.60
2019-06-10T13:10:04.276Z,5.33
2019-06-10T13:12:34.962Z,5.07
2019-06-10T13:15:07.467Z,5.63
2019-06-10T13:17:38.941Z,6.00
2019-06-10T13:20:13.433Z,5.50
2019-06-10T13:22:43.227Z,5.70
2019-06-10T13:25:15.197Z,5.70
2019-06-10T13:27:45.900Z,5.77
2019-06-10T13:30:16.855Z,5.87
2019-06-10T13:32:47.529Z,5.67
2019-06-10T13:35:18.390Z,5.50
2019-06-10T13:37:49.239Z,6.17
2019-06-10T13:40:22.711Z,5.73
2019-06-10T13:42:54.084Z,5.43
2019-06-10T13:45:26.233Z,5.30
2019-06-10T13:47:58.771Z,5.83
2019-06-10T13:50:32.865Z,5.53
2019-06-10T13:53:06.537Z,5.90
2019-06-10T13:55:36.906Z,5.63
2019-06-10T13:58:09.606Z,5.20
2019-06-10T14:00:45.986Z,5.40
2019-06-10T14:03:16.181Z,5.90
2019-06-10T14:05:45.810Z,4.80
2019-06-10T14:08:16.517Z,5.00
2019-06-10T14:10:47.490Z,5.25
2019-06-10T14:13:18.152Z,4.42
2019-06-10T14:15:48.840Z,5.28
2019-06-10T14:18:19.707Z,4.37
2019-06-10T14:20:53.214Z,4.70
2019-06-10T14:23:23.231Z,4.95
2019-06-10T14:25:53.978Z,4.40
2019-06-10T14:28:39.912Z,5.00
2019-06-10T14:30:57.135Z,4.17
2019-06-10T14:33:34.243Z,4.78
2019-06-10T14:36:05.877Z,4.75
2019-06-10T14:38:37.559Z,4.97
2019-06-10T14:41:08.679Z,4.97
2019-06-10T14:43:39.521Z,4.53
2019-06-10T14:46:13.881Z,4.95
2019-06-10T14:48:44.077Z,4.75
2019-06-10T14:51:22.915Z,4.92
2019-06-10T14:53:54.295Z,4.78
2019-06-10T14:56:25.191Z,5.10
2019-06-10T14:58:55.871Z,5.05
2019-06-10T15:01:26.556Z,4.60
2019-06-10T15:03:57.281Z,4.72
2019-06-10T15:06:28.272Z,5.15
2019-06-10T15:08:59.027Z,4.77
2019-06-10T15:11:32.136Z,5.50
2019-06-10T15:14:03.896Z,5.87
2019-06-10T15:16:34.692Z,5.80
2019-06-10T15:19:14.757Z,5.50
2019-06-10T15:21:39.205Z,5.20
2019-06-10T15:24:10.099Z,5.67
2019-06-10T15:26:42.208Z,4.77
2019-06-10T15:29:15.596Z,5.30
2019-06-10T15:31:45.689Z,5.13
2019-06-10T15:34:18.089Z,5.40
2019-06-10T15:36:48.824Z,5.20
2019-06-10T15:39:23.429Z,5.17
2019-06-10T15:41:52.344Z,5.53
2019-06-10T15:44:41.940Z,5.03
2019-06-10T15:46:56.719Z,5.97
2019-06-10T15:49:27.407Z,8.13
2019-06-10T15:52:00.234Z,5.10
2019-06-10T15:54:33.303Z,5.10
2019-06-10T15:57:05.039Z,5.60
2019-06-10T15:59:37.888Z,5.60
2019-06-10T16:02:08.860Z,4.97
2019-06-10T16:04:39.655Z,5.37
2019-06-10T16:07:14.653Z,5.23
2019-06-10T16:09:45.286Z,5.50
2019-06-10T16:12:17.669Z,5.53
2019-06-10T16:14:48.851Z,5.30
2019-06-10T16:17:19.611Z,5.13
2019-06-10T16:19:52.811Z,5.50
2019-06-10T16:22:24.939Z,5.63
2019-06-10T16:24:55.556Z,5.17
2019-06-10T16:27:43.515Z,5.63
2019-06-10T16:29:58.746Z,5.30
2019-06-10T16:32:29.534Z,5.40
2019-06-10T16:35:00.370Z,5.30
2019-06-10T16:37:32.780Z,5.50
2019-06-10T16:40:03.784Z,5.83
2019-06-10T16:42:35.181Z,5.93
2019-06-10T16:45:07.735Z,5.43
2019-06-10T16:47:45.015Z,5.57
2019-06-10T16:50:17.229Z,6.13
2019-06-10T16:52:48.524Z,5.67
2019-06-10T16:55:27.629Z,5.47
2019-06-10T16:58:10.359Z,5.83
2019-06-10T17:00:43.248Z,5.87
2019-06-10T17:03:15.866Z,5.87
2019-06-10T17:05:47.000Z,6.00
2019-06-10T17:08:25.953Z,5.57
2019-06-10T17:10:58.347Z,5.60
2019-06-10T17:13:35.949Z,5.83
2019-06-10T17:16:13.221Z,5.80
2019-06-10T17:18:44.609Z,5.80
2019-06-10T17:21:16.875Z,5.77
2019-06-10T17:23:47.616Z,5.53
2019-06-10T17:26:22.693Z,6.20
2019-06-10T17:28:52.158Z,5.97
2019-06-10T17:31:26.863Z,5.90
2019-06-10T17:33:55.416Z,5.80
2019-06-10T17:36:29.250Z,6.50
2019-06-10T17:38:58.550Z,5.93
2019-06-10T17:41:30.600Z,7.60
2019-06-10T17:44:02.750Z,7.70
2019-06-10T17:46:35.205Z,7.03
2019-06-10T17:49:06.284Z,6.40
2019-06-10T17:51:37.628Z,6.50
2019-06-10T17:54:08.397Z,6.67
2019-06-10T17:56:39.476Z,6.37
2019-06-10T17:59:12.671Z,5.83
2019-06-10T18:01:44.583Z,6.40
2019-06-10T18:04:15.326Z,5.17
2019-06-10T18:06:47.450Z,5.63
2019-06-10T18:09:18.690Z,6.00
2019-06-10T18:11:49.933Z,6.03
2019-06-10T18:14:22.756Z,6.07
2019-06-10T18:16:53.068Z,6.90
2019-06-10T18:19:24.244Z,7.53
2019-06-10T18:21:55.020Z,6.63
2019-06-10T18:24:27.300Z,6.63
2019-06-10T18:26:58.199Z,6.30
2019-06-10T18:29:29.219Z,6.07
2019-06-10T18:32:00.016Z,6.23
2019-06-10T18:34:32.461Z,6.10
2019-06-10T18:37:03.186Z,5.90
2019-06-10T18:39:33.843Z,6.00
2019-06-10T18:42:04.881Z,6.07
2019-06-10T18:44:37.399Z,5.97
2019-06-10T18:47:08.495Z,6.20
2019-06-10T18:49:43.276Z,6.57
2019-06-10T18:52:17.025Z,5.97
2019-06-10T18:54:47.862Z,6.20
2019-06-10T18:57:18.581Z,6.60
2019-06-10T18:59:49.288Z,6.03
2019-06-10T19:02:22.507Z,6.33
2019-06-10T19:04:59.200Z,6.73
2019-06-10T19:07:31.289Z,6.90
2019-06-10T19:10:02.451Z,7.60
2019-06-10T19:12:34.083Z,6.10
2019-06-10T19:15:06.445Z,7.00
2019-06-10T19:17:39.824Z,6.20
2019-06-10T19:20:13.077Z,6.73
2019-06-10T19:22:44.811Z,6.53
2019-06-10T19:25:15.788Z,7.40
2019-06-10T19:27:47.291Z,6.60
2019-06-10T19:30:20.276Z,6.90
2019-06-10T19:32:53.268Z,7.07
2019-06-10T19:35:24.278Z,7.10
2019-06-10T19:37:55.082Z,6.73
2019-06-10T19:40:25.838Z,7.13
2019-06-10T19:42:56.530Z,8.13
2019-06-10T19:45:27.249Z,8.50
2019-06-10T19:47:57.970Z,7.73
2019-06-10T19:50:33.069Z,7.87
2019-06-10T19:53:04.728Z,7.47
2019-06-10T19:55:35.429Z,7.10
2019-06-10T19:58:06.105Z,7.57
2019-06-10T20:00:37.504Z,7.07
2019-06-10T20:03:08.558Z,7.13
2019-06-10T20:05:44.918Z,8.30
2019-06-10T20:08:14.479Z,7.33
2019-06-10T20:10:45.231Z,7.53
2019-06-10T20:13:16.027Z,7.40
2019-06-10T20:16:05.900Z,7.50
2019-06-10T20:18:37.867Z,7.80
2019-06-10T20:21:08.865Z,8.47
2019-06-10T20:23:44.535Z,8.13
2019-06-10T20:26:14.216Z,7.70
2019-06-10T20:28:46.399Z,8.20
2019-06-10T20:31:22.145Z,7.43
2019-06-10T20:33:52.960Z,7.73
2019-06-10T20:36:27.088Z,8.40
2019-06-10T20:38:56.638Z,8.07
2019-06-10T20:41:27.284Z,8.03
2019-06-10T20:43:58.077Z,7.57
2019-06-10T20:46:28.769Z,8.17
2019-06-10T20:48:59.652Z,8.47
2019-06-10T20:51:40.561Z,8.53
2019-06-10T20:54:04.374Z,8.03
2019-06-10T20:56:35.065Z,8.47
2019-06-10T20:59:06.784Z,8.73
2019-06-10T21:01:38.823Z,8.63
2019-06-10T21:04:09.902Z,8.97
2019-06-10T21:06:43.458Z,8.93
2019-06-10T21:09:14.163Z,9.17
2019-06-10T21:11:47.018Z,9.47
2019-06-10T21:14:17.250Z,9.43
2019-06-10T21:16:48.366Z,9.47
2019-06-10T21:19:19.734Z,9.67
2019-06-10T21:21:54.503Z,8.90
2019-06-10T21:24:23.653Z,9.63
2019-06-10T21:26:54.991Z,12.07
2019-06-10T21:29:26.078Z,9.37
2019-06-10T21:31:59.536Z,8.87
2019-06-10T21:34:32.589Z,8.97
2019-06-10T21:37:04.579Z,8.87
2019-06-10T21:39:43.783Z,9.33
2019-06-10T21:42:13.334Z,9.00
2019-06-10T21:44:45.898Z,9.67
2019-06-10T21:47:18.431Z,9.70
2019-06-10T21:49:50.325Z,9.50
2019-06-10T21:52:22.578Z,9.37
2019-06-10T21:54:53.347Z,9.40
2019-06-10T21:57:25.815Z,10.10
2019-06-10T21:59:58.018Z,9.23
2019-06-10T22:02:32.361Z,9.17
2019-06-10T22:05:06.535Z,9.83
2019-06-10T22:07:37.377Z,9.50
2019-06-10T22:10:08.690Z,10.47
2019-06-10T22:12:42.161Z,10.73
2019-06-10T22:15:14.044Z,10.43
2019-06-10T22:17:44.732Z,9.93
2019-06-10T22:20:15.960Z,9.60
2019-06-10T22:22:46.659Z,7.40
2019-06-10T22:25:17.328Z,3.83
2019-06-10T22:27:48.027Z,3.90
2019-06-10T22:30:18.824Z,2.93
2019-06-10T22:32:54.928Z,2.47
2019-06-10T22:35:23.494Z,2.40
2019-06-10T22:37:55.444Z,2.53
2019-06-10T22:40:26.711Z,2.70
2019-06-10T22:42:57.698Z,3.20
2019-06-10T22:45:29.168Z,2.43
2019-06-10T22:48:02.794Z,2.53
2019-06-10T22:50:33.069Z,2.60
2019-06-10T22:53:04.334Z,2.73
2019-06-10T22:55:35.043Z,3.17
2019-06-10T22:58:06.349Z,2.80
2019-06-10T23:00:37.602Z,2.23
2019-06-10T23:03:08.448Z,2.77
2019-06-10T23:05:39.115Z,2.70
2019-06-10T23:08:12.438Z,3.13
2019-06-10T23:10:42.984Z,3.30
2019-06-10T23:13:16.370Z,3.10
2019-06-10T23:15:46.345Z,2.87
2019-06-10T23:18:17.017Z,2.30
2019-06-10T23:20:47.705Z,2.63
2019-06-10T23:23:18.404Z,2.40
2019-06-10T23:25:49.576Z,2.87
2019-06-10T23:28:22.233Z,2.80
2019-06-10T23:30:56.615Z,2.50
2019-06-10T23:33:25.225Z,2.60
2019-06-10T23:35:56.501Z,2.70
2019-06-10T23:38:27.450Z,1.93
2019-06-10T23:40:58.867Z,2.70
2019-06-10T23:43:29.781Z,2.27
2019-06-10T23:46:03.673Z,2.80
2019-06-10T23:48:34.842Z,1.93
2019-06-10T23:51:06.932Z,2.33
2019-06-10T23:53:37.804Z,2.37
2019-06-10T23:56:09.341Z,2.93
2019-06-10T23:58:40.272Z,3.10
